Time;durP1;ratioP1;P1;durP2;ratioP2;P2;SDS_P1;SDS_P2;PMS_P1;PMS_P2;Temp;Humidity;BMP_temperature;BMP_pressure;BME280_temperature;BME280_humidity;BME280_pressure;Samples;Min_cycle;Max_cycle;Signal;HPM_P1;HPM_P2
2022/05/30 00:00:52;;;;;;;5.33;3.10;;;;;;;21.06;68.04;98557.72;5072801;28;20191;-73
2022/05/30 00:03:19;;;;;;;3.47;3.23;;;;;;;21.00;68.28;98558.84;5072618;28;20311;-71
2022/05/30 00:05:48;;;;;;;3.40;3.20;;;;;;;20.84;69.04;98566.28;5072518;28;20674;-72
2022/05/30 00:08:16;;;;;;;3.50;3.30;;;;;;;20.66;69.50;98564.25;5072555;28;20726;-72
2022/05/30 00:10:44;;;;;;;4.30;3.13;;;;;;;20.68;69.36;98554.00;5074008;28;20196;-72
2022/05/30 00:13:12;;;;;;;4.47;3.80;;;;;;;20.69;69.31;98555.59;5072739;28;20191;-72
2022/05/30 00:15:39;;;;;;;3.70;3.23;;;;;;;20.79;69.30;98552.84;5072481;28;20663;-73
2022/05/30 00:18:07;;;;;;;3.20;3.00;;;;;;;20.81;69.17;98566.84;5072918;28;20249;-73
2022/05/30 00:20:34;;;;;;;5.50;3.77;;;;;;;20.85;69.06;98567.06;5072595;28;20900;-73
2022/05/30 00:23:01;;;;;;;5.83;3.10;;;;;;;20.80;68.85;98570.63;5072388;28;20253;-73
2022/05/30 00:25:28;;;;;;;4.63;3.50;;;;;;;20.77;68.98;98586.56;5072307;28;20428;-73
2022/05/30 00:27:56;;;;;;;3.30;3.00;;;;;;;20.80;68.89;98597.63;5072573;28;20192;-72
2022/05/30 00:30:22;;;;;;;3.50;3.20;;;;;;;20.63;69.14;98591.84;5072695;28;20617;-73
2022/05/30 00:32:49;;;;;;;3.57;3.13;;;;;;;20.54;70.04;98598.91;5072749;28;20225;-73
2022/05/30 00:35:16;;;;;;;3.53;3.20;;;;;;;20.35;70.20;98598.78;5072543;28;20200;-72
2022/05/30 00:37:43;;;;;;;3.93;3.60;;;;;;;20.38;70.36;98589.34;5072001;28;20192;-72
2022/05/30 00:40:11;;;;;;;3.53;3.27;;;;;;;20.34;70.32;98589.06;5072653;28;20572;-72
2022/05/30 00:42:38;;;;;;;3.73;3.43;;;;;;;20.29;70.71;98599.09;5072405;28;20195;-73
2022/05/30 00:45:07;;;;;;;7.30;3.13;;;;;;;20.29;70.83;98597.22;5071949;28;20706;-73
2022/05/30 00:47:34;;;;;;;4.67;3.30;;;;;;;20.27;70.70;98598.56;5072139;28;20192;-73
2022/05/30 00:50:00;;;;;;;6.03;3.27;;;;;;;20.25;70.78;98590.75;5071170;28;20592;-73
2022/05/30 00:52:30;;;;;;;4.20;3.90;;;;;;;20.30;70.67;98598.81;5070945;28;20226;-73
2022/05/30 00:55:00;;;;;;;3.83;3.50;;;;;;;20.32;70.44;98598.53;5070966;28;20260;-73
2022/05/30 00:57:28;;;;;;;6.17;3.57;;;;;;;20.28;70.88;98594.78;5071370;28;20250;-73
2022/05/30 00:59:57;;;;;;;3.93;3.60;;;;;;;20.30;70.58;98592.63;5071443;28;20195;-73
2022/05/30 01:02:28;;;;;;;4.50;3.03;;;;;;;20.26;70.45;98599.66;5070995;28;20737;-73
2022/05/30 01:07:41;;;;;;;4.93;3.33;;;;;;;20.23;70.91;98597.53;5070821;28;20276;-73
2022/05/30 01:10:10;;;;;;;4.30;3.70;;;;;;;20.11;71.17;98605.16;5071138;28;20202;-73
2022/05/30 01:12:40;;;;;;;4.83;3.83;;;;;;;20.11;71.13;98599.75;5071127;28;20198;-73
2022/05/30 01:15:10;;;;;;;3.70;3.43;;;;;;;20.13;71.26;98602.97;5070818;28;20187;-72
2022/05/30 01:17:48;;;;;;;3.80;3.40;;;;;;;20.06;71.37;98597.06;5070963;28;20184;-72
2022/05/30 01:20:24;;;;;;;5.60;3.40;;;;;;;19.92;72.04;98588.78;5070409;28;20640;-72
2022/05/30 01:23:07;;;;;;;5.60;3.57;;;;;;;19.70;72.21;98598.31;5070357;28;20230;-72
2022/05/30 01:26:03;;;;;;;5.67;4.00;;;;;;;19.68;72.35;98598.59;5070561;28;20215;-73
2022/05/30 01:28:40;;;;;;;3.70;3.40;;;;;;;19.68;72.39;98603.16;5070660;28;20189;-73
2022/05/30 01:31:08;;;;;;;4.23;3.80;;;;;;;19.68;72.27;98600.47;5071494;28;20180;-73
2022/05/30 01:33:35;;;;;;;4.13;3.53;;;;;;;19.70;72.09;98598.31;5070856;28;20195;-73
2022/05/30 01:36:02;;;;;;;3.60;3.30;;;;;;;19.66;72.28;98597.25;5070922;28;20207;-74
2022/05/30 01:38:29;;;;;;;4.53;4.13;;;;;;;19.77;71.86;98609.63;5070728;28;20252;-74
2022/05/30 01:40:59;;;;;;;3.80;3.47;;;;;;;19.76;72.13;98614.19;5070697;28;20333;-73
2022/05/30 01:43:26;;;;;;;4.83;3.67;;;;;;;19.86;71.79;98616.03;5070547;28;20249;-72
2022/05/30 01:45:54;;;;;;;4.17;3.53;;;;;;;19.91;71.74;98616.00;5070623;28;20192;-73
2022/05/30 01:48:21;;;;;;;4.07;3.20;;;;;;;19.81;71.73;98613.38;5070769;28;20192;-74
2022/05/30 01:50:47;;;;;;;3.97;3.57;;;;;;;19.84;71.72;98627.09;5070405;28;20274;-74
2022/05/30 01:53:15;;;;;;;4.27;3.60;;;;;;;19.78;71.88;98617.44;5071020;28;20261;-73
2022/05/30 01:55:41;;;;;;;4.23;3.83;;;;;;;19.77;72.02;98623.09;5070791;28;20347;-73
2022/05/30 01:58:08;;;;;;;4.00;3.50;;;;;;;19.82;71.81;98623.06;5073036;28;20253;-73
2022/05/30 02:00:36;;;;;;;4.13;3.27;;;;;;;19.79;72.04;98623.59;5075299;28;20248;-73
2022/05/30 02:03:05;;;;;;;8.33;3.90;;;;;;;19.75;71.91;98622.53;5075389;28;20271;-74
2022/05/30 02:05:33;;;;;;;5.00;4.10;;;;;;;19.67;72.36;98615.84;5075085;28;20258;-73
2022/05/30 02:08:01;;;;;;;7.73;4.07;;;;;;;19.49;73.02;98612.97;5075068;28;20702;-73
2022/05/30 02:10:28;;;;;;;4.00;3.60;;;;;;;19.50;73.05;98623.47;5074647;28;20663;-72
2022/05/30 02:12:55;;;;;;;4.13;3.70;;;;;;;19.56;72.73;98619.66;5075391;28;20274;-72
2022/05/30 02:15:22;;;;;;;5.80;3.73;;;;;;;19.45;73.18;98619.97;5075145;28;20195;-71
2022/05/30 02:17:48;;;;;;;3.57;3.27;;;;;;;19.54;73.11;98626.41;5075031;28;20276;-72
2022/05/30 02:20:16;;;;;;;4.17;3.70;;;;;;;19.55;73.04;98633.41;5075036;28;20281;-72
2022/05/30 02:22:43;;;;;;;3.50;2.93;;;;;;;19.54;73.42;98635.31;5074792;28;20195;-73
2022/05/30 02:25:10;;;;;;;4.10;3.50;;;;;;;19.43;74.27;98636.41;5075331;28;20293;-73
2022/05/30 02:27:37;;;;;;;3.30;3.10;;;;;;;19.42;74.39;98634.78;5074525;28;20191;-74
2022/05/30 02:30:05;;;;;;;4.20;3.27;;;;;;;19.32;75.14;98634.81;5075107;28;20191;-73
2022/05/30 02:32:32;;;;;;;4.00;3.70;;;;;;;19.32;75.01;98626.72;5074515;28;20191;-74
2022/05/30 02:37:44;;;;;;;3.90;3.40;;;;;;;19.19;75.73;98639.94;5074497;28;20202;-73
2022/05/30 02:40:11;;;;;;;4.10;3.67;;;;;;;19.16;76.03;98645.84;5074101;28;20199;-72
2022/05/30 02:42:39;;;;;;;4.13;3.70;;;;;;;19.12;76.39;98648.25;5074263;28;20192;-73
2022/05/30 02:45:07;;;;;;;9.43;3.63;;;;;;;19.16;76.40;98657.41;5074412;28;20292;-73
2022/05/30 02:47:34;;;;;;;7.20;3.40;;;;;;;19.10;76.65;98663.06;5074561;28;20243;-73
2022/05/30 02:50:00;;;;;;;4.60;3.23;;;;;;;19.06;76.81;98662.00;5074426;28;20664;-73
2022/05/30 02:52:27;;;;;;;3.70;3.40;;;;;;;19.10;76.46;98676.53;5074014;28;20733;-73
2022/05/30 02:54:55;;;;;;;5.13;3.03;;;;;;;19.06;76.61;98680.84;5074337;28;20584;-73
2022/05/30 02:57:22;;;;;;;5.43;3.57;;;;;;;18.97;76.90;98685.97;5074570;28;20277;-73
2022/05/30 02:59:48;;;;;;;5.50;3.50;;;;;;;19.12;76.60;98688.66;5074589;28;20257;-73
2022/05/30 03:02:15;;;;;;;3.80;3.50;;;;;;;19.13;76.51;98694.84;5074124;28;20249;-73
2022/05/30 03:04:42;;;;;;;5.30;4.23;;;;;;;19.14;76.67;98701.84;5074192;28;20217;-73
2022/05/30 03:07:09;;;;;;;4.07;3.73;;;;;;;19.06;76.80;98705.91;5074205;28;20253;-73
2022/05/30 03:09:35;;;;;;;5.13;3.90;;;;;;;19.11;76.63;98713.19;5073131;28;20611;-73
2022/05/30 03:12:04;;;;;;;4.03;3.73;;;;;;;19.09;76.50;98720.69;5074068;28;20196;-73
2022/05/30 03:14:31;;;;;;;4.83;3.70;;;;;;;19.04;76.94;98720.72;5074017;28;20200;-73
2022/05/30 03:16:58;;;;;;;4.07;3.50;;;;;;;19.13;76.70;98727.16;5073870;28;20192;-73
2022/05/30 03:19:24;;;;;;;7.17;3.50;;;;;;;19.14;76.53;98723.38;5073824;28;20198;-73
2022/05/30 03:21:51;;;;;;;5.97;3.90;;;;;;;19.15;76.74;98733.09;5073624;28;20768;-73
2022/05/30 03:24:18;;;;;;;4.53;4.13;;;;;;;19.02;76.90;98720.16;5073541;28;20277;-72
2022/05/30 03:26:45;;;;;;;6.47;3.60;;;;;;;19.10;77.19;98739.28;5074056;28;20211;-71
2022/05/30 03:29:13;;;;;;;5.07;3.70;;;;;;;19.15;76.86;98751.94;5073805;28;20192;-72
2022/05/30 03:31:40;;;;;;;4.80;4.03;;;;;;;19.26;76.71;98748.19;5073168;28;20261;-72
2022/05/30 03:34:07;;;;;;;7.20;4.10;;;;;;;19.35;76.46;98754.63;5073696;28;20284;-72
2022/05/30 03:36:34;;;;;;;4.57;4.13;;;;;;;19.47;75.99;98760.56;5073412;28;20199;-73
2022/05/30 03:39:00;;;;;;;5.20;4.30;;;;;;;19.66;75.10;98767.00;5073238;28;20722;-73
2022/05/30 03:41:27;;;;;;;4.93;4.00;;;;;;;19.76;75.14;98780.47;5073445;28;20252;-73
2022/05/30 03:43:59;;;;;;;5.57;3.70;;;;;;;19.88;74.05;98776.41;5073301;28;20735;-73
2022/05/30 03:46:28;;;;;;;5.30;3.37;;;;;;;19.79;74.51;98786.13;5072906;28;20195;-74
2022/05/30 03:48:55;;;;;;;11.13;3.80;;;;;;;19.93;74.37;98786.38;5073356;28;20196;-74
2022/05/30 03:51:21;;;;;;;4.87;3.73;;;;;;;19.95;73.72;98786.91;5073283;28;20223;-74
2022/05/30 03:53:48;;;;;;;7.93;3.73;;;;;;;20.13;72.76;98780.94;5073499;28;20192;-74
2022/05/30 03:56:15;;;;;;;4.97;3.40;;;;;;;20.25;72.14;98782.25;5072699;28;20192;-73
2022/05/30 03:58:42;;;;;;;8.57;4.13;;;;;;;20.40;71.44;98781.38;5073056;28;20250;-73
2022/05/30 04:01:09;;;;;;;6.90;3.67;;;;;;;20.63;70.12;98792.34;5072278;28;20218;-73
2022/05/30 04:03:39;;;;;;;4.33;3.47;;;;;;;21.06;69.35;98801.56;5072993;28;20188;-68
2022/05/30 04:06:07;;;;;;;3.43;3.20;;;;;;;22.03;67.42;98801.31;5072555;28;20219;-68
2022/05/30 04:08:34;;;;;;;4.50;3.27;;;;;;;22.71;62.99;98808.09;5073399;28;20188;-68
2022/05/30 04:11:01;;;;;;;5.53;3.40;;;;;;;23.39;60.66;98814.72;5072939;28;20200;-69
2022/05/30 04:13:28;;;;;;;11.03;3.90;;;;;;;24.04;58.07;98816.34;5073105;28;20195;-69
2022/05/30 04:15:55;;;;;;;5.83;3.23;;;;;;;24.72;55.16;98828.06;5072891;28;20253;-69
2022/05/30 04:18:21;;;;;;;4.27;3.87;;;;;;;25.02;56.54;98825.78;5072744;28;20194;-69
2022/05/30 04:20:49;;;;;;;8.30;5.13;;;;;;;25.19;54.02;98837.59;5073148;28;20194;-69
2022/05/30 04:23:17;;;;;;;13.50;7.53;;;;;;;25.49;54.87;98830.69;5072753;28;20271;-68
2022/05/30 04:25:43;;;;;;;4.50;4.10;;;;;;;25.76;52.90;98838.72;5072168;28;20713;-68
2022/05/30 04:28:10;;;;;;;6.70;3.57;;;;;;;26.08;51.66;98843.88;5072490;28;20195;-68
2022/05/30 04:30:37;;;;;;;6.70;3.87;;;;;;;26.32;50.95;98833.44;5072218;28;20252;-69
2022/05/30 04:33:04;;;;;;;3.60;3.40;;;;;;;27.11;49.64;98841.22;5071839;28;20218;-69
2022/05/30 04:35:30;;;;;;;6.13;5.50;;;;;;;27.58;48.35;98844.97;5071757;28;20235;-68
2022/05/30 04:37:59;;;;;;;6.00;3.73;;;;;;;28.06;45.67;98851.03;5071895;28;20223;-68
2022/05/30 04:40:25;;;;;;;9.07;3.77;;;;;;;28.33;44.36;98858.78;5071739;28;20200;-67
2022/05/30 04:42:52;;;;;;;5.73;3.63;;;;;;;28.55;43.94;98853.91;5072435;28;20253;-67
2022/05/30 04:45:19;;;;;;;8.30;4.00;;;;;;;28.88;43.23;98857.59;5069703;28;20320;-68
2022/05/30 04:47:45;;;;;;;8.43;3.57;;;;;;;29.31;41.92;98862.81;5052379;28;20197;-64
2022/05/30 04:50:16;;;;;;;8.03;3.27;;;;;;;29.80;41.17;98861.94;5051136;28;20228;-64
2022/05/30 04:52:43;;;;;;;3.60;3.30;;;;;;;29.92;39.73;98864.72;5051424;28;20275;-65
2022/05/30 04:55:13;;;;;;;5.67;3.07;;;;;;;29.69;39.23;98860.78;5051713;28;20576;-66
2022/05/30 04:57:44;;;;;;;4.10;2.93;;;;;;;29.91;38.59;98856.84;5050148;28;20655;-68
2022/05/30 05:00:13;;;;;;;5.67;3.07;;;;;;;29.40;39.06;98852.63;5049732;28;20185;-65
2022/05/30 05:02:41;;;;;;;4.10;2.90;;;;;;;29.51;39.01;98859.28;5047452;28;20258;-66
2022/05/30 05:05:10;;;;;;;3.97;2.53;;;;;;;29.68;38.90;98856.41;5047950;28;20719;-64
2022/05/30 05:07:46;;;;;;;5.77;2.70;;;;;;;30.00;38.25;98855.63;5047413;28;20230;-66
2022/05/30 05:10:46;;;;;;;16.90;4.13;;;;;;;30.15;38.38;98855.03;5049344;28;20677;-66
2022/05/30 05:13:12;;;;;;;3.40;2.60;;;;;;;30.35;37.47;98862.38;5037925;28;20196;-66
2022/05/30 05:15:39;;;;;;;3.43;2.80;;;;;;;30.56;36.66;98863.06;5051269;28;20261;-65
2022/05/30 05:18:06;;;;;;;3.83;2.80;;;;;;;30.47;36.95;98862.38;5051472;28;20218;-65
2022/05/30 05:20:37;;;;;;;3.13;2.83;;;;;;;30.71;36.51;98864.38;5050329;28;20189;-64
2022/05/30 05:23:04;;;;;;;3.27;3.07;;;;;;;31.12;35.70;98870.41;5050039;28;20189;-65
2022/05/30 05:25:31;;;;;;;4.37;2.80;;;;;;;31.23;35.33;98873.50;5050972;28;20220;-65
2022/05/30 05:27:59;;;;;;;3.43;2.90;;;;;;;31.31;35.46;98870.59;5049351;28;20224;-65
2022/05/30 05:30:25;;;;;;;4.83;2.87;;;;;;;31.45;35.32;98873.78;5050033;28;20200;-64
2022/05/30 05:32:52;;;;;;;3.03;2.43;;;;;;;30.88;35.37;98870.44;5060698;28;20199;-65
2022/05/30 05:35:19;;;;;;;3.60;2.50;;;;;;;31.28;35.23;98874.03;5059286;28;20665;-67
2022/05/30 05:37:45;;;;;;;8.57;3.07;;;;;;;31.27;35.84;98872.44;5072783;28;20195;-67
2022/05/30 05:40:13;;;;;;;7.60;3.43;;;;;;;30.58;35.67;98873.69;5072767;28;20203;-67
2022/05/30 05:42:40;;;;;;;4.33;2.97;;;;;;;30.77;35.77;98874.75;5054659;28;20258;-67
2022/05/30 05:45:10;;;;;;;4.00;2.93;;;;;;;30.88;35.36;98873.16;5054587;28;20220;-66
2022/05/30 05:47:37;;;;;;;5.70;3.20;;;;;;;30.12;36.15;98874.84;5059996;28;20188;-66
2022/05/30 05:50:04;;;;;;;3.63;3.33;;;;;;;29.94;37.00;98887.13;5064365;28;20216;-64
2022/05/30 05:52:32;;;;;;;6.23;2.97;;;;;;;29.97;36.91;98882.91;5066926;28;20193;-65
2022/05/30 05:55:00;;;;;;;7.53;3.20;;;;;;;30.60;36.75;98887.84;5053703;28;20215;-66
2022/05/30 05:57:26;;;;;;;4.60;2.90;;;;;;;30.36;35.43;98898.78;5067444;28;20741;-67
2022/05/30 05:59:53;;;;;;;6.40;3.40;;;;;;;30.65;35.42;98902.16;5069204;28;20192;-65
2022/05/30 06:02:23;;;;;;;2.97;2.67;;;;;;;30.52;35.98;98895.06;5073562;28;20672;-64
2022/05/30 06:04:52;;;;;;;5.67;3.37;;;;;;;30.40;35.89;98903.25;5074520;28;20188;-64
2022/05/30 06:07:19;;;;;;;3.20;2.83;;;;;;;30.33;36.45;98908.50;5073853;28;20192;-65
2022/05/30 06:09:46;;;;;;;8.27;3.00;;;;;;;30.44;36.37;98904.19;5074284;28;20265;-64
2022/05/30 06:12:13;;;;;;;5.37;3.13;;;;;;;30.27;36.47;98906.31;5074562;28;20330;-65
2022/05/30 06:14:39;;;;;;;7.43;3.70;;;;;;;30.05;36.85;98912.94;5074234;28;20196;-64
2022/05/30 06:17:06;;;;;;;5.83;3.60;;;;;;;30.21;37.79;98911.19;5074483;28;20196;-66
2022/05/30 06:19:34;;;;;;;3.73;3.13;;;;;;;30.53;36.89;98918.59;5074788;28;20200;-65
2022/05/30 06:22:01;;;;;;;5.70;4.40;;;;;;;30.48;36.11;98927.03;5075035;28;20192;-65
2022/05/30 06:24:28;;;;;;;7.43;3.80;;;;;;;30.11;36.35;98919.81;5075016;28;20192;-65
2022/05/30 06:26:54;;;;;;;8.57;3.53;;;;;;;30.36;36.62;98924.25;5074958;28;20277;-65
2022/05/30 06:29:21;;;;;;;7.13;4.53;;;;;;;29.76;37.74;98917.75;5074518;28;20614;-65
2022/05/30 06:31:48;;;;;;;8.43;3.87;;;;;;;29.74;38.03;98923.53;5074793;28;20261;-66
2022/05/30 06:34:14;;;;;;;13.77;4.60;;;;;;;29.68;38.11;98918.63;5074016;28;20250;-64
2022/05/30 06:36:44;;;;;;;5.07;4.00;;;;;;;29.84;38.07;98916.88;5074469;28;20199;-64
2022/05/30 06:39:11;;;;;;;10.87;4.53;;;;;;;29.84;38.71;98922.34;5074567;28;20579;-64
2022/05/30 06:41:38;;;;;;;10.13;4.53;;;;;;;30.16;38.89;98918.81;5074615;28;20192;-65
2022/05/30 06:44:07;;;;;;;7.53;4.07;;;;;;;30.25;37.12;98923.09;5074578;28;20188;-67
2022/05/30 06:46:35;;;;;;;8.13;4.63;;;;;;;29.68;37.19;98922.13;5075172;28;20707;-67
2022/05/30 06:49:02;;;;;;;4.93;4.63;;;;;;;29.91;37.23;98923.41;5074369;28;20208;-66
2022/05/30 06:51:30;;;;;;;6.60;4.33;;;;;;;30.30;36.27;98924.81;5074393;28;20200;-67
2022/05/30 06:53:58;;;;;;;17.17;5.33;;;;;;;29.21;37.71;98917.94;5074669;28;20226;-66
2022/05/30 06:56:28;;;;;;;5.50;4.97;;;;;;;29.18;38.32;98922.16;5074127;28;20196;-66
2022/05/30 06:58:55;;;;;;;8.10;4.83;;;;;;;29.08;38.65;98919.78;5074447;28;20241;-67
2022/05/30 07:01:24;;;;;;;4.83;4.53;;;;;;;29.57;38.45;98922.84;5093799;28;20192;-68
2022/05/30 07:03:51;;;;;;;11.00;5.00;;;;;;;29.53;38.34;98922.72;5093240;28;20264;-68
2022/05/30 07:06:20;;;;;;;8.83;4.37;;;;;;;29.40;37.62;98917.50;5094562;28;20248;-68
2022/05/30 07:08:47;;;;;;;11.50;4.50;;;;;;;29.31;37.83;98920.28;5088099;28;20577;-66
2022/05/30 07:11:16;;;;;;;4.10;3.77;;;;;;;29.36;38.01;98920.13;5083262;28;20613;-66
2022/05/30 07:13:43;;;;;;;10.53;4.30;;;;;;;29.42;38.88;98913.28;5094335;28;20199;-65
2022/05/30 07:16:10;;;;;;;5.03;3.80;;;;;;;29.72;38.05;98914.06;5095009;28;20544;-66
2022/05/30 07:18:37;;;;;;;6.67;3.87;;;;;;;29.62;38.33;98908.97;5093869;28;20655;-66
2022/05/30 07:21:07;;;;;;;4.00;3.50;;;;;;;29.47;38.52;98918.56;5094271;28;20191;-66
2022/05/30 07:23:36;;;;;;;7.93;3.53;;;;;;;29.29;38.21;98928.03;5093888;28;20663;-67
2022/05/30 07:26:06;;;;;;;5.70;3.60;;;;;;;29.28;39.49;98920.97;5093708;28;20222;-66
2022/05/30 07:28:34;;;;;;;4.60;3.23;;;;;;;29.40;38.51;98920.25;5093897;28;20188;-66
2022/05/30 07:31:04;;;;;;;9.90;3.80;;;;;;;28.99;39.17;98912.75;5094160;28;20303;-66
2022/05/30 07:33:31;;;;;;;7.67;3.60;;;;;;;29.16;38.74;98915.41;5086256;28;20191;-66
2022/05/30 07:35:58;;;;;;;4.77;3.57;;;;;;;29.40;38.17;98912.03;5073404;28;20218;-65
2022/05/30 07:38:26;;;;;;;4.87;3.03;;;;;;;29.37;37.88;98918.97;5073605;28;20192;-66
2022/05/30 07:40:53;;;;;;;6.43;3.87;;;;;;;29.39;39.06;98911.22;5073380;28;20196;-65
2022/05/30 07:43:20;;;;;;;4.70;3.60;;;;;;;29.50;38.20;98912.44;5073666;28;20191;-67
2022/05/30 07:45:48;;;;;;;7.00;3.67;;;;;;;29.59;38.67;98910.44;5091113;28;20219;-66
2022/05/30 07:48:15;;;;;;;5.93;3.27;;;;;;;29.58;38.98;98919.00;5093214;28;20199;-66
2022/05/30 07:50:41;;;;;;;14.30;4.53;;;;;;;29.24;39.33;98918.06;5093583;28;20263;-67
2022/05/30 07:53:08;;;;;;;9.33;4.00;;;;;;;29.68;38.89;98913.91;5093688;28;20282;-65
2022/05/30 07:55:35;;;;;;;3.97;3.47;;;;;;;30.36;38.19;98907.81;5092683;28;20195;-66
2022/05/30 07:58:05;;;;;;;6.87;4.10;;;;;;;30.43;37.63;98918.22;5093393;28;20225;-65
2022/05/30 08:00:34;;;;;;;18.30;4.13;;;;;;;30.35;37.98;98919.94;5079010;28;20192;-65
2022/05/30 08:03:04;;;;;;;8.40;3.97;;;;;;;30.19;37.44;98924.44;5072966;28;20192;-65
2022/05/30 08:05:31;;;;;;;7.43;3.53;;;;;;;30.36;36.39;98916.03;5072899;28;20192;-66
2022/05/30 08:07:58;;;;;;;4.63;2.83;;;;;;;30.78;36.23;98922.19;5072745;28;20656;-65
2022/05/30 08:10:24;;;;;;;6.20;2.90;;;;;;;30.86;35.00;98922.06;5073043;28;20238;-65
2022/05/30 08:12:51;;;;;;;8.13;3.70;;;;;;;30.63;34.71;98929.13;5073482;28;20261;-65
2022/05/30 08:15:18;;;;;;;2.77;2.53;;;;;;;30.53;34.61;98918.59;5072956;28;20222;-66
2022/05/30 08:17:44;;;;;;;6.27;4.00;;;;;;;30.25;35.39;98917.59;5073818;28;20196;-65
2022/05/30 08:20:15;;;;;;;4.43;3.30;;;;;;;30.01;36.31;98933.13;5072835;28;20261;-66
2022/05/30 08:22:43;;;;;;;3.43;3.20;;;;;;;30.13;36.62;98933.19;5072953;28;20196;-66
2022/05/30 08:25:14;;;;;;;7.00;3.30;;;;;;;29.99;36.21;98930.72;5072864;28;20191;-65
2022/05/30 08:27:41;;;;;;;6.03;3.30;;;;;;;30.47;35.50;98936.41;5073518;28;20219;-65
2022/05/30 08:30:09;;;;;;;22.87;4.30;;;;;;;30.17;36.08;98932.19;5072662;28;20246;-65
2022/05/30 08:32:37;;;;;;;5.00;3.80;;;;;;;30.11;35.72;98928.03;5072272;28;20196;-66
2022/05/30 08:35:05;;;;;;;4.20;3.77;;;;;;;30.19;37.26;98929.13;5072207;28;20625;-65
2022/05/30 08:37:37;;;;;;;6.93;3.40;;;;;;;30.39;36.28;98933.75;5072649;28;20192;-66
2022/05/30 08:42:52;;;;;;;5.90;3.23;;;;;;;30.82;34.67;98945.06;5072604;28;20179;-66
2022/05/30 08:45:22;;;;;;;4.17;3.50;;;;;;;30.34;35.53;98948.47;5086024;28;20708;-64
2022/05/30 08:47:52;;;;;;;3.47;3.17;;;;;;;30.58;35.81;98948.53;5092637;28;20276;-64
2022/05/30 08:50:36;;;;;;;4.53;3.83;;;;;;;30.24;35.82;98942.59;5092723;28;20702;-65
2022/05/30 08:53:52;;;;;;;6.80;4.00;;;;;;;30.22;36.27;98951.19;5092610;28;20252;-65
2022/05/30 08:56:25;;;;;;;4.27;3.97;;;;;;;30.18;36.84;98949.44;5065922;28;20252;-65
2022/05/30 08:59:06;;;;;;;4.93;3.90;;;;;;;30.43;37.21;98951.94;5092893;28;20239;-64
2022/05/30 09:01:36;;;;;;;6.73;4.50;;;;;;;30.38;36.61;98954.09;5073178;28;20188;-65
2022/05/30 09:04:10;;;;;;;5.83;3.97;;;;;;;30.50;37.22;98952.16;5072033;28;20241;-66
2022/05/30 09:06:44;;;;;;;4.87;4.47;;;;;;;30.03;37.51;98958.25;5071221;28;20211;-65
2022/05/30 09:09:21;;;;;;;8.97;4.73;;;;;;;30.12;36.72;98957.03;5072817;28;20250;-65
2022/05/30 09:11:52;;;;;;;6.60;4.03;;;;;;;30.43;36.36;98962.09;5072065;28;20190;-65
2022/05/30 09:14:28;;;;;;;4.60;3.97;;;;;;;30.79;35.86;98970.44;5071957;28;20316;-66
2022/05/30 09:17:01;;;;;;;6.67;5.30;;;;;;;31.08;35.54;98960.06;5072479;28;20188;-65
2022/05/30 09:19:28;;;;;;;5.30;4.83;;;;;;;31.13;35.49;98959.81;5071807;28;20648;-66
2022/05/30 09:22:01;;;;;;;8.37;4.37;;;;;;;31.39;36.31;98962.25;5072422;28;20245;-65
2022/05/30 09:24:30;;;;;;;5.47;4.10;;;;;;;31.25;36.45;98973.56;5072379;28;20223;-65
2022/05/30 09:26:58;;;;;;;10.00;4.60;;;;;;;31.42;33.42;98956.84;5071402;28;20221;-65
2022/05/30 09:29:29;;;;;;;10.73;3.83;;;;;;;31.38;33.26;98953.19;5071999;28;20287;-65
2022/05/30 09:32:09;;;;;;;14.97;4.57;;;;;;;31.51;33.99;98957.53;5071691;28;20648;-64
2022/05/30 09:34:45;;;;;;;7.50;4.93;;;;;;;31.26;35.24;98949.66;5071604;28;20577;-64
2022/05/30 09:37:25;;;;;;;6.77;4.27;;;;;;;31.51;34.60;98957.53;5071277;28;20659;-65
2022/05/30 09:39:54;;;;;;;4.97;4.07;;;;;;;31.35;34.35;98956.63;5071576;28;20184;-65
2022/05/30 09:42:30;;;;;;;3.67;3.40;;;;;;;31.47;33.11;98970.34;5072507;28;20195;-64
2022/05/30 09:45:07;;;;;;;7.10;3.57;;;;;;;31.01;33.21;98965.31;5081774;28;20192;-69
2022/05/30 09:47:35;;;;;;;6.53;3.90;;;;;;;31.11;32.95;98961.31;5073704;28;20215;-67
2022/05/30 09:50:15;;;;;;;7.43;3.73;;;;;;;30.86;33.71;98957.75;5070873;28;20262;-68
2022/05/30 09:52:42;;;;;;;8.53;3.90;;;;;;;30.88;34.46;98952.72;5070153;28;20188;-67
2022/05/30 09:55:34;;;;;;;9.23;3.87;;;;;;;30.48;34.29;98957.19;5071041;28;20636;-67
2022/05/30 09:58:02;;;;;;;4.47;3.60;;;;;;;30.58;34.52;98958.69;5066443;28;20196;-67
2022/05/30 10:00:50;;;;;;;6.67;5.33;;;;;;;30.52;34.25;98957.31;5067649;28;20693;-67
2022/05/30 10:03:29;;;;;;;8.27;4.97;;;;;;;30.78;34.07;98958.66;5068996;28;20249;-68
2022/05/30 10:06:14;;;;;;;6.17;4.67;;;;;;;30.51;33.76;98953.78;5068292;28;20183;-69
2022/05/30 10:08:41;;;;;;;4.47;4.00;;;;;;;30.66;33.99;98955.84;5067408;28;20640;-68
2022/05/30 10:11:10;;;;;;;7.43;3.60;;;;;;;30.90;32.66;98946.91;5068604;28;20188;-70
2022/05/30 10:13:39;;;;;;;11.40;4.17;;;;;;;31.09;32.67;98963.59;5067160;28;20188;-69
2022/05/30 10:16:08;;;;;;;7.97;3.97;;;;;;;31.13;32.62;98954.34;5067199;28;20192;-69
2022/05/30 10:18:37;;;;;;;7.30;3.67;;;;;;;31.33;32.61;98958.13;5071205;28;20200;-69
2022/05/30 10:21:14;;;;;;;7.20;3.40;;;;;;;31.14;32.75;98950.44;5071684;28;20192;-69
2022/05/30 10:29:42;;;;;;;6.27;3.57;;;;;;;31.45;32.42;98950.69;5072533;28;20322;-69
2022/05/30 10:32:15;;;;;;;7.37;3.50;;;;;;;31.72;31.03;98949.91;5072517;28;20569;-69
2022/05/30 10:35:21;;;;;;;6.80;3.37;;;;;;;31.66;31.52;98951.31;5071601;28;20227;-70
2022/05/30 10:38:13;;;;;;;6.83;3.60;;;;;;;31.45;31.09;98956.16;5050906;28;20216;-70
2022/05/30 10:40:54;;;;;;;7.37;3.17;;;;;;;31.70;30.69;98957.72;5048495;28;20197;-69
2022/05/30 10:43:27;;;;;;;6.83;3.17;;;;;;;31.87;30.70;98940.97;5067540;28;20249;-68
2022/05/30 10:45:59;;;;;;;4.53;3.40;;;;;;;31.72;30.84;98944.41;5092130;28;20196;-69
2022/05/30 10:48:32;;;;;;;7.67;3.30;;;;;;;31.68;31.35;98940.78;5053962;28;20212;-69
2022/05/30 10:51:03;;;;;;;5.80;4.20;;;;;;;31.91;31.30;98930.88;5054293;28;20777;-67
2022/05/30 10:53:37;;;;;;;3.97;3.30;;;;;;;31.71;31.60;98931.84;5054218;28;20217;-69
2022/05/30 10:56:13;;;;;;;11.27;3.50;;;;;;;31.94;31.85;98932.94;5054213;28;20242;-69
2022/05/30 10:58:49;;;;;;;6.63;2.97;;;;;;;31.87;30.57;98935.50;5054394;28;20188;-69
2022/05/30 11:01:29;;;;;;;5.90;3.30;;;;;;;32.01;32.24;98935.88;5053114;28;20180;-69
2022/05/30 11:04:09;;;;;;;10.07;3.67;;;;;;;31.79;31.27;98936.44;5053610;28;20188;-70
2022/05/30 11:06:41;;;;;;;9.93;3.50;;;;;;;31.80;31.15;98949.00;5054216;28;20289;-69
2022/05/30 11:09:22;;;;;;;7.87;3.90;;;;;;;32.25;30.15;98945.94;5072549;28;20184;-69
2022/05/30 11:12:00;;;;;;;15.50;3.70;;;;;;;32.04;30.13;98940.69;5072642;28;20250;-69
2022/05/30 11:14:36;;;;;;;3.30;3.00;;;;;;;31.92;30.60;98934.41;5072319;28;20188;-70
2022/05/30 11:17:12;;;;;;;4.00;3.40;;;;;;;31.99;30.52;98938.19;5073662;28;20274;-69
2022/05/30 11:19:56;;;;;;;6.20;3.17;;;;;;;32.02;30.23;98931.19;5072470;28;20188;-69
2022/05/30 11:22:32;;;;;;;3.73;3.10;;;;;;;31.93;30.07;98927.81;5079875;28;20195;-70
2022/05/30 11:24:59;;;;;;;8.87;2.90;;;;;;;32.00;30.70;98923.28;5093285;28;20265;-69
2022/05/30 11:27:36;;;;;;;9.13;3.60;;;;;;;32.08;30.05;98930.59;5092753;28;20223;-68
2022/05/30 11:30:35;;;;;;;8.90;3.07;;;;;;;32.25;28.65;98934.97;5092755;28;20738;-69
2022/05/30 11:33:29;;;;;;;6.80;3.17;;;;;;;31.68;29.95;98924.28;5092950;28;20183;-70
2022/05/30 11:36:13;;;;;;;7.43;2.90;;;;;;;31.73;29.30;98934.25;5092651;28;20179;-69
2022/05/30 11:39:01;;;;;;;7.77;3.23;;;;;;;31.89;29.44;98922.19;5092213;28;20677;-67
2022/05/30 11:41:44;;;;;;;5.83;3.40;;;;;;;32.01;29.46;98924.88;5076928;28;20180;-67
2022/05/30 11:44:34;;;;;;;6.33;3.10;;;;;;;31.87;29.50;98932.75;5076639;28;20278;-68
2022/05/30 11:47:16;;;;;;;8.83;3.30;;;;;;;32.21;29.21;98929.38;5092500;28;20207;-70
2022/05/30 11:49:53;;;;;;;5.70;3.03;;;;;;;32.01;29.12;98927.63;5092470;28;20222;-70
2022/05/30 11:52:28;;;;;;;6.43;3.30;;;;;;;31.92;29.13;98932.47;5091669;28;20244;-70
2022/05/30 11:55:10;;;;;;;11.87;3.20;;;;;;;32.17;29.79;98930.44;5091489;28;20638;-71
2022/05/30 11:57:46;;;;;;;5.67;2.77;;;;;;;32.32;29.38;98925.00;5092727;28;20275;-69
2022/05/30 12:00:25;;;;;;;10.07;2.90;;;;;;;32.15;29.31;98935.47;5080674;28;20214;-68